createdAt,value
2023-04-19T00:01:20.029Z,85.13
2023-04-19T00:03:47.406Z,84.75
2023-04-19T00:06:15.612Z,85.05
2023-04-19T00:08:43.152Z,85.09
2023-04-19T00:11:10.352Z,84.87
2023-04-19T00:13:38.215Z,85.24
2023-04-19T00:16:05.988Z,85.27
2023-04-19T00:18:34.335Z,85.25
2023-04-19T00:21:02.504Z,85.69
2023-04-19T00:23:29.961Z,86.37
2023-04-19T00:25:57.148Z,86.50
2023-04-19T00:28:24.973Z,87.23
2023-04-19T00:30:52.242Z,87.92
2023-04-19T00:33:19.858Z,88.28
2023-04-19T00:35:49.063Z,88.78
2023-04-19T00:38:16.313Z,89.56
2023-04-19T00:40:46.332Z,90.27
2023-04-19T00:43:17.046Z,90.77
2023-04-19T00:45:44.403Z,91.48
2023-04-19T00:48:13.259Z,91.74
2023-04-19T00:50:41.156Z,92.18
2023-04-19T00:53:08.823Z,92.78
2023-04-19T00:55:38.356Z,93.42
2023-04-19T00:58:06.016Z,93.81
2023-04-19T01:00:34.235Z,94.53
2023-04-19T01:03:02.041Z,95.10
2023-04-19T01:05:29.873Z,95.85
2023-04-19T01:07:57.291Z,96.76
2023-04-19T01:10:24.557Z,96.87
2023-04-19T01:12:51.831Z,97.22
2023-04-19T01:15:19.225Z,97.17
2023-04-19T01:17:49.800Z,97.44
2023-04-19T01:20:16.995Z,97.52
2023-04-19T01:22:45.257Z,97.76
2023-04-19T01:25:13.144Z,98.10
2023-04-19T01:27:44.076Z,98.77
2023-04-19T01:30:11.544Z,99.08
2023-04-19T01:32:39.036Z,99.56
2023-04-19T01:35:06.550Z,100.00
2023-04-19T01:37:37.060Z,100.00
2023-04-19T01:40:06.710Z,100.00
2023-04-19T01:42:35.484Z,100.00
2023-04-19T01:45:03.604Z,100.00
2023-04-19T01:47:32.294Z,100.00
2023-04-19T01:49:59.665Z,100.00
2023-04-19T01:52:26.971Z,100.00
2023-04-19T01:54:54.343Z,100.00
2023-04-19T01:57:21.637Z,100.00
2023-04-19T01:59:49.903Z,100.00
2023-04-19T02:02:17.324Z,100.00
2023-04-19T02:04:44.628Z,100.00
2023-04-19T02:07:11.939Z,100.00
2023-04-19T02:09:39.200Z,100.00
2023-04-19T02:12:06.770Z,100.00
2023-04-19T02:14:34.024Z,100.00
2023-04-19T02:17:01.271Z,100.00
2023-04-19T02:19:28.538Z,100.00
2023-04-19T02:21:57.696Z,100.00
2023-04-19T02:24:25.094Z,100.00
2023-04-19T02:26:53.500Z,100.00
2023-04-19T02:29:21.290Z,100.00
2023-04-19T02:31:48.561Z,100.00
2023-04-19T02:34:16.235Z,100.00
2023-04-19T02:36:43.916Z,100.00
2023-04-19T02:39:12.002Z,100.00
2023-04-19T02:41:39.557Z,100.00
2023-04-19T02:44:08.206Z,100.00
2023-04-19T02:46:35.800Z,100.00
2023-04-19T02:49:03.189Z,100.00
2023-04-19T02:51:30.979Z,100.00
2023-04-19T02:53:58.610Z,100.00
2023-04-19T02:56:26.191Z,100.00
2023-04-19T02:58:54.822Z,100.00
2023-04-19T03:01:22.179Z,100.00
2023-04-19T03:03:50.594Z,100.00
2023-04-19T03:06:18.541Z,100.00
2023-04-19T03:08:46.307Z,100.00
2023-04-19T03:11:15.268Z,100.00
2023-04-19T03:13:43.154Z,100.00
2023-04-19T03:16:10.443Z,100.00
2023-04-19T03:18:37.807Z,100.00
2023-04-19T03:21:05.220Z,100.00
2023-04-19T03:23:38.510Z,100.00
2023-04-19T03:26:05.793Z,100.00
2023-04-19T03:28:38.425Z,100.00
2023-04-19T03:31:18.133Z,100.00
2023-04-19T03:33:45.827Z,100.00
2023-04-19T03:36:13.529Z,100.00
2023-04-19T03:38:44.104Z,100.00
2023-04-19T03:41:20.162Z,100.00
2023-04-19T03:43:48.426Z,100.00
2023-04-19T03:46:15.894Z,100.00
2023-04-19T03:48:43.681Z,100.00
2023-04-19T03:51:10.925Z,100.00
2023-04-19T03:53:38.141Z,100.00
2023-04-19T03:56:05.469Z,100.00
2023-04-19T03:58:33.719Z,100.00
2023-04-19T04:01:06.363Z,100.00
2023-04-19T04:03:34.835Z,100.00
2023-04-19T04:06:03.594Z,99.67
2023-04-19T04:08:31.336Z,98.32
2023-04-19T04:10:58.642Z,97.36
2023-04-19T04:13:25.977Z,96.15
2023-04-19T04:16:03.087Z,95.19
2023-04-19T04:18:31.813Z,95.00
2023-04-19T04:21:00.451Z,94.44
2023-04-19T04:23:29.453Z,94.30
2023-04-19T04:25:59.054Z,92.88
2023-04-19T04:28:29.837Z,90.56
2023-04-19T04:30:57.593Z,87.54
2023-04-19T04:33:26.243Z,84.35
2023-04-19T04:35:54.312Z,81.61
2023-04-19T04:38:24.882Z,77.94
2023-04-19T04:40:53.987Z,75.03
2023-04-19T04:43:22.344Z,73.79
2023-04-19T04:45:49.656Z,73.70
2023-04-19T04:48:19.207Z,71.86
2023-04-19T04:50:46.480Z,71.00
2023-04-19T04:53:14.061Z,69.23
2023-04-19T04:55:43.493Z,67.00
2023-04-19T04:58:12.706Z,65.14
2023-04-19T05:00:54.765Z,64.44
2023-04-19T05:03:22.541Z,64.30
2023-04-19T05:05:55.023Z,63.58
2023-04-19T05:08:27.745Z,62.18
2023-04-19T05:10:58.987Z,60.72
2023-04-19T05:13:27.804Z,59.58
2023-04-19T05:15:55.375Z,59.63
2023-04-19T05:18:24.453Z,59.49
2023-04-19T05:20:53.256Z,59.01
2023-04-19T05:23:23.947Z,59.72
2023-04-19T05:25:51.465Z,59.77
2023-04-19T05:28:18.788Z,59.72
2023-04-19T05:30:56.451Z,59.95
2023-04-19T05:33:25.794Z,60.45
2023-04-19T05:35:53.085Z,60.76
2023-04-19T05:38:20.614Z,61.48
2023-04-19T05:40:48.425Z,62.67
2023-04-19T05:43:15.879Z,63.41
2023-04-19T05:45:43.233Z,64.80
2023-04-19T05:48:10.592Z,64.46
2023-04-19T05:50:43.494Z,64.84
2023-04-19T05:53:32.891Z,65.13
2023-04-19T05:56:00.329Z,65.41
2023-04-19T05:58:27.590Z,64.96
2023-04-19T06:00:55.293Z,62.45
2023-04-19T06:03:22.962Z,59.53
2023-04-19T06:05:50.488Z,57.37
2023-04-19T06:08:18.924Z,56.69
2023-04-19T06:10:54.871Z,55.75
2023-04-19T06:13:25.837Z,54.43
2023-04-19T06:15:53.283Z,54.96
2023-04-19T06:18:20.766Z,54.98
2023-04-19T06:20:48.039Z,55.83
2023-04-19T06:23:15.516Z,55.73
2023-04-19T06:25:43.050Z,54.03
2023-04-19T06:28:11.282Z,54.38
2023-04-19T06:30:38.523Z,54.33
2023-04-19T06:33:05.855Z,54.32
2023-04-19T06:35:32.973Z,54.20
2023-04-19T06:38:00.276Z,54.22
2023-04-19T06:40:29.149Z,54.03
2023-04-19T06:42:56.571Z,53.91
2023-04-19T06:45:24.333Z,53.00
2023-04-19T06:47:51.947Z,53.90
2023-04-19T06:50:19.251Z,53.52
2023-04-19T06:52:46.727Z,53.45
2023-04-19T06:55:13.994Z,53.01
2023-04-19T06:57:42.248Z,53.30
2023-04-19T07:00:10.318Z,53.64
2023-04-19T07:02:37.785Z,54.03
2023-04-19T07:05:07.795Z,54.29
2023-04-19T07:07:37.661Z,53.87
2023-04-19T07:10:05.551Z,53.94
2023-04-19T07:12:32.824Z,53.46
2023-04-19T07:15:00.155Z,52.67
2023-04-19T07:17:27.734Z,53.29
2023-04-19T07:19:54.939Z,53.37
2023-04-19T07:22:22.404Z,52.46
2023-04-19T07:24:52.154Z,53.05
2023-04-19T07:27:19.379Z,53.16
2023-04-19T07:29:46.868Z,53.31
2023-04-19T07:32:14.957Z,53.68
2023-04-19T07:34:43.199Z,53.72
2023-04-19T07:37:10.921Z,54.03
2023-04-19T07:39:41.227Z,53.86
2023-04-19T07:42:08.476Z,53.87
2023-04-19T07:44:35.880Z,53.36
2023-04-19T07:47:04.877Z,52.65
2023-04-19T07:49:34.091Z,52.72
2023-04-19T07:52:04.283Z,52.86
2023-04-19T07:54:31.951Z,53.53
2023-04-19T07:56:59.120Z,52.10
2023-04-19T07:59:26.623Z,51.48
2023-04-19T08:01:53.955Z,52.42
2023-04-19T08:04:23.005Z,53.24
2023-04-19T08:06:50.802Z,53.18
2023-04-19T08:09:18.386Z,52.92
2023-04-19T08:11:45.722Z,51.95
2023-04-19T08:14:28.443Z,52.42
2023-04-19T08:19:30.415Z,51.91
2023-04-19T08:21:57.716Z,52.24
2023-04-19T08:24:24.991Z,52.28
2023-04-19T08:26:55.018Z,52.99
2023-04-19T08:29:22.902Z,53.54
2023-04-19T08:31:50.239Z,53.08
2023-04-19T08:34:17.562Z,53.14
2023-04-19T08:36:51.873Z,52.99
2023-04-19T08:39:32.892Z,52.59
2023-04-19T08:42:11.058Z,52.88
2023-04-19T08:45:05.669Z,52.27
2023-04-19T08:47:34.318Z,52.79
2023-04-19T08:52:56.000Z,53.67
2023-04-19T08:55:26.325Z,52.42
2023-04-19T08:57:53.530Z,52.28
2023-04-19T09:00:21.126Z,52.48
2023-04-19T09:02:49.398Z,52.51
2023-04-19T09:05:18.136Z,53.38
2023-04-19T09:07:46.248Z,52.63
2023-04-19T09:10:14.462Z,52.97
2023-04-19T09:12:42.037Z,53.19
2023-04-19T09:15:09.551Z,52.63
2023-04-19T09:17:37.237Z,50.38
2023-04-19T09:20:05.326Z,51.16
2023-04-19T09:22:33.957Z,51.22
2023-04-19T09:27:33.330Z,52.52
2023-04-19T09:30:01.049Z,52.02
2023-04-19T09:32:29.086Z,51.81
2023-04-19T09:34:57.097Z,52.73
2023-04-19T09:40:00.264Z,55.04
2023-04-19T09:47:45.359Z,54.95
2023-04-19T09:50:22.712Z,53.34
2023-04-19T09:52:52.180Z,53.44
2023-04-19T09:57:49.865Z,50.45
2023-04-19T10:00:17.143Z,50.57
2023-04-19T10:02:44.918Z,50.23
2023-04-19T10:05:20.417Z,50.19
2023-04-19T10:07:49.430Z,50.67
2023-04-19T10:10:20.716Z,50.75
2023-04-19T10:15:23.754Z,51.12
2023-04-19T10:17:51.065Z,51.53
2023-04-19T10:20:30.627Z,51.15
2023-04-19T10:22:58.038Z,51.97
2023-04-19T10:25:32.424Z,51.33
2023-04-19T10:28:00.374Z,50.85
2023-04-19T10:30:27.715Z,52.05
2023-04-19T10:32:56.676Z,52.20
2023-04-19T10:35:30.547Z,52.06
2023-04-19T10:38:03.952Z,50.63
2023-04-19T10:40:50.089Z,50.16
2023-04-19T10:43:17.863Z,50.77
2023-04-19T10:45:46.071Z,51.58
2023-04-19T10:48:35.237Z,50.46
2023-04-19T10:51:03.202Z,51.41
2023-04-19T10:53:43.211Z,50.04
2023-04-19T10:56:10.502Z,50.29
2023-04-19T10:58:56.679Z,50.95
2023-04-19T11:01:38.397Z,51.79
2023-04-19T11:04:06.349Z,52.56
2023-04-19T11:06:34.029Z,52.19
2023-04-19T11:09:05.619Z,53.24
2023-04-19T11:11:36.916Z,53.24
2023-04-19T11:14:05.344Z,53.60
2023-04-19T11:16:45.405Z,53.24
2023-04-19T11:19:17.026Z,53.65
2023-04-19T11:21:45.497Z,53.70
2023-04-19T11:24:12.738Z,53.53
2023-04-19T11:26:41.125Z,53.39
2023-04-19T11:29:08.668Z,53.79
2023-04-19T11:31:36.058Z,53.70
2023-04-19T11:34:03.364Z,53.90
2023-04-19T11:36:31.790Z,53.74
2023-04-19T11:38:59.019Z,54.35
2023-04-19T11:41:26.213Z,54.62
2023-04-19T11:43:53.440Z,55.26
2023-04-19T11:46:20.577Z,55.40
2023-04-19T11:48:53.870Z,55.66
2023-04-19T11:51:21.479Z,56.03
2023-04-19T11:53:48.630Z,56.03
2023-04-19T11:56:16.539Z,56.66
2023-04-19T11:58:45.158Z,57.57
2023-04-19T12:01:13.970Z,57.59
2023-04-19T12:03:44.466Z,58.81
2023-04-19T12:06:16.014Z,59.30
2023-04-19T12:08:43.744Z,60.15
2023-04-19T12:11:11.150Z,61.15
2023-04-19T12:13:40.619Z,62.20
2023-04-19T12:16:08.379Z,63.09
2023-04-19T12:18:49.956Z,64.15
2023-04-19T12:21:30.924Z,65.49
2023-04-19T12:23:59.301Z,65.00
2023-04-19T12:26:29.325Z,66.03
2023-04-19T12:28:57.179Z,66.58
2023-04-19T12:31:24.952Z,66.60
2023-04-19T12:33:52.776Z,67.01
2023-04-19T12:36:20.993Z,68.02
2023-04-19T12:38:48.546Z,67.95
2023-04-19T12:41:15.933Z,68.26
2023-04-19T12:43:43.395Z,67.44
2023-04-19T12:46:11.185Z,66.56
2023-04-19T12:48:39.498Z,65.00
2023-04-19T12:51:07.159Z,65.05
2023-04-19T12:53:34.699Z,65.66
2023-04-19T12:56:02.091Z,66.06
2023-04-19T12:58:29.685Z,65.89
2023-04-19T13:00:59.587Z,66.22
2023-04-19T13:03:32.628Z,66.63
2023-04-19T13:06:00.707Z,66.08
2023-04-19T13:08:41.440Z,65.75
2023-04-19T13:11:13.968Z,65.17
2023-04-19T13:13:41.493Z,66.03
2023-04-19T13:16:08.944Z,67.87
2023-04-19T13:18:36.952Z,69.98
2023-04-19T13:21:06.082Z,69.97
2023-04-19T13:23:36.209Z,69.91
2023-04-19T13:26:04.533Z,70.12
2023-04-19T13:28:35.580Z,69.86
2023-04-19T13:31:04.729Z,69.16
2023-04-19T13:33:33.795Z,69.22
2023-04-19T13:36:01.182Z,69.64
2023-04-19T13:38:29.665Z,69.60
2023-04-19T13:40:57.255Z,69.10
2023-04-19T13:43:24.684Z,69.38
2023-04-19T13:45:55.150Z,69.94
2023-04-19T13:48:23.090Z,70.39
2023-04-19T13:50:52.322Z,70.52
2023-04-19T13:53:19.953Z,69.78
2023-04-19T13:55:47.463Z,68.96
2023-04-19T13:58:15.810Z,69.29
2023-04-19T14:00:43.599Z,69.06
2023-04-19T14:03:11.672Z,69.17
2023-04-19T14:05:40.350Z,68.79
2023-04-19T14:08:07.963Z,68.56
2023-04-19T14:10:36.068Z,68.61
2023-04-19T14:13:05.081Z,68.76
2023-04-19T14:15:32.716Z,68.02
2023-04-19T14:18:00.424Z,67.78
2023-04-19T14:20:29.381Z,67.83
2023-04-19T14:22:59.029Z,67.99
2023-04-19T14:25:26.888Z,67.53
2023-04-19T14:27:54.489Z,67.84
2023-04-19T14:30:21.929Z,67.86
2023-04-19T14:32:50.006Z,67.91
2023-04-19T14:35:17.578Z,68.20
2023-04-19T14:37:44.957Z,68.45
2023-04-19T14:40:12.558Z,68.40
2023-04-19T14:42:40.447Z,68.63
2023-04-19T14:45:08.334Z,68.75
2023-04-19T14:47:36.831Z,68.29
2023-04-19T14:50:04.670Z,68.07
2023-04-19T14:52:32.123Z,68.35
2023-04-19T14:54:59.848Z,68.20
2023-04-19T14:57:27.783Z,68.36
2023-04-19T14:59:58.621Z,68.23
2023-04-19T15:02:26.698Z,68.49
2023-04-19T15:04:54.841Z,67.97
2023-04-19T15:07:22.530Z,68.03
2023-04-19T15:09:50.152Z,68.21
2023-04-19T15:12:17.916Z,68.24
2023-04-19T15:14:45.617Z,68.35
2023-04-19T15:17:13.287Z,68.42
2023-04-19T15:19:40.869Z,68.47
2023-04-19T15:22:08.492Z,68.62
2023-04-19T15:24:35.945Z,68.50
2023-04-19T15:27:03.984Z,68.72
2023-04-19T15:29:31.499Z,68.43
2023-04-19T15:31:58.981Z,68.99
2023-04-19T15:34:26.523Z,69.69
2023-04-19T15:36:54.117Z,69.04
2023-04-19T15:39:21.551Z,69.51
2023-04-19T15:41:49.168Z,69.23
2023-04-19T15:44:16.718Z,69.43
2023-04-19T15:46:44.282Z,69.45
2023-04-19T15:49:12.288Z,69.67
2023-04-19T15:51:40.508Z,69.72
2023-04-19T15:54:07.937Z,69.89
2023-04-19T15:56:37.510Z,70.44
2023-04-19T15:59:04.945Z,70.84
2023-04-19T16:01:32.692Z,70.82
2023-04-19T16:04:00.655Z,70.61
2023-04-19T16:06:29.126Z,70.97
2023-04-19T16:08:56.759Z,71.52
2023-04-19T16:11:25.128Z,71.59
2023-04-19T16:13:52.847Z,72.11
2023-04-19T16:16:20.439Z,72.18
2023-04-19T16:18:48.352Z,71.91
2023-04-19T16:21:15.985Z,72.79
2023-04-19T16:23:43.623Z,72.75
2023-04-19T16:26:11.185Z,73.88
2023-04-19T16:28:38.726Z,73.96
2023-04-19T16:31:06.240Z,74.25
2023-04-19T16:33:34.052Z,74.14
2023-04-19T16:36:01.608Z,74.02
2023-04-19T16:38:29.442Z,74.43
2023-04-19T16:40:58.929Z,74.45
2023-04-19T16:43:26.456Z,75.02
2023-04-19T16:45:53.968Z,75.28
2023-04-19T16:48:21.500Z,74.78
2023-04-19T16:50:49.052Z,73.68
2023-04-19T16:53:16.406Z,73.19
2023-04-19T16:55:44.247Z,72.63
2023-04-19T16:58:11.640Z,72.28
2023-04-19T17:00:39.028Z,71.54
2023-04-19T17:03:08.976Z,71.53
2023-04-19T17:05:36.984Z,70.01
2023-04-19T17:08:04.579Z,68.50
2023-04-19T17:10:32.620Z,67.54
2023-04-19T17:13:00.139Z,67.43
2023-04-19T17:15:27.761Z,67.92
2023-04-19T17:17:55.686Z,67.59
2023-04-19T17:20:23.293Z,67.25
2023-04-19T17:22:51.389Z,66.22
2023-04-19T17:25:19.961Z,65.71
2023-04-19T17:27:49.415Z,65.95
2023-04-19T17:30:16.826Z,65.54
2023-04-19T17:32:45.235Z,65.26
2023-04-19T17:35:13.032Z,65.55
2023-04-19T17:37:40.719Z,65.25
2023-04-19T17:40:08.774Z,65.60
2023-04-19T17:42:39.084Z,64.97
2023-04-19T17:45:10.652Z,65.03
2023-04-19T17:47:39.381Z,65.68
2023-04-19T17:50:07.874Z,65.86
2023-04-19T17:52:35.710Z,66.19
2023-04-19T17:55:04.661Z,66.63
2023-04-19T17:57:33.717Z,67.08
2023-04-19T18:00:05.776Z,67.44
2023-04-19T18:02:37.362Z,68.15
2023-04-19T18:05:05.296Z,68.71
2023-04-19T18:07:34.628Z,69.41
2023-04-19T18:10:03.837Z,70.21
2023-04-19T18:24:11.295Z,72.83
2023-04-19T18:26:40.999Z,73.06
2023-04-19T18:29:10.339Z,72.95
2023-04-19T18:31:39.361Z,72.65
2023-04-19T18:34:09.961Z,72.54
2023-04-19T18:36:41.080Z,72.81
2023-04-19T18:39:10.649Z,72.37
2023-04-19T18:41:39.702Z,71.96
2023-04-19T18:46:40.917Z,71.44
2023-04-19T18:49:10.502Z,71.40
2023-04-19T18:51:39.509Z,71.41
2023-04-19T18:54:08.431Z,71.52
2023-04-19T18:59:09.129Z,72.02
2023-04-19T19:01:38.446Z,72.09
2023-04-19T19:04:28.392Z,71.70
2023-04-19T19:07:00.205Z,71.50
2023-04-19T19:09:34.726Z,71.59
2023-04-19T19:12:03.829Z,71.31
2023-04-19T19:14:36.249Z,71.32
2023-04-19T19:17:06.306Z,71.78
2023-04-19T19:19:35.818Z,72.05
2023-04-19T19:22:12.056Z,72.33
2023-04-19T19:24:48.110Z,72.80
2023-04-19T19:27:17.068Z,72.60
2023-04-19T19:29:47.431Z,72.50
2023-04-19T19:32:16.429Z,72.31
2023-04-19T19:34:54.414Z,72.50
2023-04-19T19:37:24.304Z,72.60
2023-04-19T19:39:56.108Z,72.60
2023-04-19T19:42:26.136Z,72.51
2023-04-19T19:44:55.760Z,72.66
2023-04-19T19:47:25.188Z,72.75
2023-04-19T19:50:45.620Z,72.89
2023-04-19T19:52:45.176Z,73.17
2023-04-19T19:55:14.455Z,73.43
2023-04-19T20:02:56.150Z,73.91
2023-04-19T20:05:25.692Z,73.93
2023-04-19T20:08:01.088Z,74.02
2023-04-19T20:10:31.909Z,73.97
2023-04-19T20:13:01.868Z,74.09
2023-04-19T20:15:30.584Z,74.01
2023-04-19T20:17:59.290Z,73.87
2023-04-19T20:20:28.062Z,74.03
2023-04-19T20:22:56.802Z,74.07
2023-04-19T20:25:25.593Z,73.99
2023-04-19T20:27:54.894Z,74.05
2023-04-19T20:30:23.494Z,73.88
2023-04-19T20:32:52.233Z,73.71
2023-04-19T20:35:21.574Z,73.51
2023-04-19T20:37:51.412Z,73.45
2023-04-19T20:40:19.997Z,73.78
2023-04-19T20:42:49.253Z,73.72
2023-04-19T20:45:17.946Z,73.89
2023-04-19T20:47:47.531Z,73.91
2023-04-19T20:50:16.314Z,74.02
2023-04-19T20:52:44.990Z,73.75
2023-04-19T20:55:14.107Z,73.83
2023-04-19T20:57:42.844Z,74.24
2023-04-19T21:00:12.080Z,73.91
2023-04-19T21:02:41.706Z,73.83
2023-04-19T21:05:11.215Z,73.70
2023-04-19T21:07:39.820Z,73.90
2023-04-19T21:10:08.776Z,73.96
2023-04-19T21:12:37.561Z,73.83
2023-04-19T21:15:06.862Z,73.73
2023-04-19T21:17:35.741Z,73.80
2023-04-19T21:20:11.366Z,73.89
2023-04-19T21:22:40.534Z,73.81
2023-04-19T21:25:09.674Z,73.66
2023-04-19T21:27:39.056Z,73.95
2023-04-19T21:30:08.053Z,73.60
2023-04-19T21:32:37.460Z,73.87
2023-04-19T21:35:06.479Z,73.33
2023-04-19T21:37:36.104Z,73.35
2023-04-19T21:40:05.238Z,73.11
2023-04-19T21:42:34.160Z,72.98
2023-04-19T21:45:02.848Z,72.79
2023-04-19T21:47:32.380Z,72.68
2023-04-19T21:50:01.178Z,72.63
2023-04-19T21:52:30.354Z,72.83
2023-04-19T21:55:00.154Z,72.74
2023-04-19T21:57:31.222Z,72.81
2023-04-19T22:00:00.006Z,72.82
2023-04-19T22:02:29.177Z,72.96
2023-04-19T22:05:00.775Z,73.29
2023-04-19T22:07:31.416Z,73.56
2023-04-19T22:10:03.212Z,73.96
2023-04-19T22:12:36.256Z,74.46
2023-04-19T22:15:09.627Z,74.74
2023-04-19T22:17:38.788Z,75.09
2023-04-19T22:20:09.648Z,74.84
2023-04-19T22:22:39.176Z,74.93
2023-04-19T22:25:08.090Z,74.75
2023-04-19T22:27:37.090Z,74.74
2023-04-19T22:30:06.026Z,74.49
2023-04-19T22:32:34.914Z,74.53
2023-04-19T22:35:04.515Z,74.36
2023-04-19T22:37:33.249Z,73.96
2023-04-19T22:40:01.988Z,74.03
2023-04-19T22:42:31.279Z,73.46
2023-04-19T22:44:59.974Z,73.28
2023-04-19T22:47:30.035Z,72.94
2023-04-19T22:49:58.826Z,72.92
2023-04-19T22:52:28.188Z,73.05
2023-04-19T22:54:56.767Z,73.70
2023-04-19T22:57:25.728Z,73.24
2023-04-19T22:59:54.468Z,73.45
2023-04-19T23:02:23.107Z,73.63
2023-04-19T23:04:52.722Z,73.48
2023-04-19T23:07:22.274Z,73.65
2023-04-19T23:09:51.323Z,73.63
2023-04-19T23:12:19.968Z,73.48
2023-04-19T23:14:48.645Z,73.79
2023-04-19T23:17:17.690Z,73.81
2023-04-19T23:19:46.845Z,73.58
2023-04-19T23:22:15.845Z,73.30
2023-04-19T23:24:44.716Z,73.36
2023-04-19T23:27:13.512Z,73.15
2023-04-19T23:29:42.154Z,73.01
2023-04-19T23:32:10.925Z,73.03
2023-04-19T23:34:39.839Z,73.14
2023-04-19T23:37:09.178Z,73.47
2023-04-19T23:39:37.931Z,73.51
2023-04-19T23:42:06.639Z,73.65
2023-04-19T23:44:35.919Z,73.65
2023-04-19T23:47:04.554Z,73.92
2023-04-19T23:49:34.202Z,74.08
2023-04-19T23:52:03.336Z,74.01
2023-04-19T23:54:31.966Z,73.95
2023-04-19T23:57:02.200Z,73.92
2023-04-19T23:59:33.228Z,73.94
